• Join FlightAware (Why Join?)
  • Login
  • US Flag 
05:35AM EDT


 

Airport Tracker/Info


-or-


 

Live Flight TrackerFlight Track Log ✈ FLG4152 ✈ 13-Jun-2013 ✈ KCVG - KRIC

Flight Track Log - Related Links

Times and Time Zones

All times are in EDT time to prevent confusion due to time zone crossing. See the FLG4152 flight status page for this flight to view local times or setup timezone preferences in your user account.

Time Position Orientation Groundspeed Altitude Reporting Facility
EDT Latitude Longitude Course Direction KTS MPH feet Rate Location/Type
09:15PM 39.0500 -84.6833 109° East 158 182 1,400  Level Cincinnati TRACON
09:15PM 39.0667 -84.7000 322° Northwest 152 175 3,000 1,800 Climbing Cincinnati TRACON
09:16PM 39.0833 -84.6333 72° East 247 284 4,500 1,260 Climbing Cincinnati TRACON
09:17PM 39.0744 -84.6128 119° Southeast 255 293 4,700 1,920 Climbing Indianapolis Center
09:18PM 38.8871 -84.1655 101° East  Level FlightAware Approximate
09:18PM 39.0789 -84.5169 87° East 266 306 7,100  Level Indianapolis Center
09:19PM 38.8649 -84.0211 100° East  Level FlightAware Approximate
09:19PM 39.0414 -84.4217 117° Southeast 300 345 9,000  Level Indianapolis Center
09:20PM 38.8395 -83.8780 109° East  Level FlightAware Approximate
09:20PM 38.9919 -84.3061 119° Southeast 314 361 10,800  Level Indianapolis Center
09:21PM 38.9433 -84.1986 120° Southeast 343 395 11,900 1,080 Climbing Indianapolis Center
09:22PM 38.8939 -84.0828 119° Southeast 364 419 13,100 1,080 Climbing Indianapolis Center
09:23PM 38.8581 -83.9539 110° East 381 438 14,200 1,260 Climbing Indianapolis Center
09:24PM 38.8289 -83.8156 105° East 396 456 15,700 1,500 Climbing Indianapolis Center
09:25PM 38.7981 -83.6772 106° East 402 463 17,300 1,320 Climbing Indianapolis Center
09:26PM 38.7686 -83.5356 105° East 408 470 18,500 1,140 Climbing Indianapolis Center
09:27PM 38.7644 -83.3881 92° East 411 473 19,700 1,200 Climbing Indianapolis Center
09:28PM 38.7636 -83.2119 90° East 419 482 21,000 1,140 Climbing Indianapolis Center
09:29PM 38.7625 -83.0569 90° East 425 489 22,100 960 Climbing Indianapolis Center
09:30PM 38.7617 -82.9031 90° East 429 494 23,000 420 Climbing Indianapolis Center
09:31PM 38.7117 -82.7497 113° Southeast 468 539 23,000  Level Indianapolis Center
09:32PM 38.6553 -82.5933 115° Southeast 483 556 23,000  Level Indianapolis Center
09:33PM 38.5961 -82.4325 115° Southeast 498 573 23,000  Level Indianapolis Center
09:34PM 38.5353 -82.2708 116° Southeast 505 581 23,000  Level Indianapolis Center
09:35PM 38.4753 -82.1075 115° Southeast 509 586 23,000  Level Indianapolis Center
09:36PM 38.4036 -81.9150 115° Southeast 506 582 23,000 300 Level Indianapolis Center
09:37PM 38.3489 -81.7575 114° Southeast 491 565 23,700 720 Climbing Indianapolis Center
09:38PM 38.3225 -81.5961 102° East 477 549 24,600 780 Climbing Indianapolis Center
09:39PM 38.2964 -81.4361 102° East 469 540 25,300 720 Climbing Indianapolis Center
09:40PM 38.2706 -81.2764 102° East 465 535 26,100 780 Climbing Indianapolis Center
09:41PM 38.2397 -81.0850 102° East 463 533 27,000 420 Climbing Indianapolis Center
09:43PM 38.2136 -80.9247 102° East 465 535 27,000  Level Indianapolis Center
09:44PM 38.1858 -80.7578 102° East 481 554 27,000  Level Indianapolis Center
09:45PM 38.1581 -80.5894 102° East 488 562 27,000  Level Indianapolis Center
09:45PM 38.1333 -80.4467 102° East 479 551 27,000 -960 Level Washington Center
09:46PM 38.1031 -80.2625 102° East 479 551 25,200 -1,560 Descending Washington Center
09:47PM 38.0761 -80.0972 102° East 479 551 24,000 -780 Descending Washington Center
09:48PM 38.0467 -79.9347 103° East 474 545 23,700 -960 Descending Washington Center
09:49PM 38.0211 -79.7725 101° East 469 540 22,200 -1,380 Descending Washington Center
09:50PM 37.9914 -79.6100 103° East 474 545 21,000 -600 Descending Washington Center
09:51PM 37.9669 -79.4664 102° East 469 540 21,000  Level Washington Center
09:52PM 37.9383 -79.3097 103° East 464 534 21,000  Level Washington Center
09:53PM 37.9100 -79.1503 103° East 459 528 21,000 -540 Level Washington Center
09:54PM 37.8725 -79.0011 108° East 454 522 20,000 2,940 Descending Washington Center
09:55PM 37.8247 -78.8386 110° East 449 517 27,000 -1,740 Climbing Washington Center
09:56PM 37.7847 -78.6950 109° East 444 511 16,600 -6,000 Descending Washington Center
09:57PM 37.7447 -78.5542 110° East 432 497 15,100 -1,200 Descending Washington Center
09:58PM 37.7042 -78.4186 111° Southeast 425 489 14,300 -1,680 Descending Washington Center
09:59PM 37.6672 -78.2939 110° East 407 468 11,800 -2,280 Descending Washington Center
10:00PM 37.6403 -78.1961 109° East 365 420 9,900 -1,440 Descending Washington Center
10:01PM 37.6050 -78.0875 112° Southeast 343 395 9,000 -480 Descending Washington Center
10:02PM 37.5717 -77.9867 113° Southeast 319 367 9,000 -480 Level Washington Center
10:03PM 37.5064 -77.9139 138° Southeast 306 352 8,100 -1,140 Descending Washington Center
10:04PM 37.4431 -77.8467 140° Southeast 300 345 6,700 -1,680 Descending Washington Center
10:05PM 37.3794 -77.7819 141° Southeast 300 345 4,800 -1,260 Descending Washington Center
10:06PM 37.3308 -77.7050 128° Southeast 295 339 4,300 -300 Descending Washington Center
10:07PM 37.2800 -77.6225 128° Southeast 290 334 4,200 -540 Descending Washington Center
10:10PM 37.2833 -77.3833 89° East 241 277 2,600 -780 Descending Potomac TRACON
10:11PM 37.3000 -77.3167 73° East 226 260 1,600 -480 Descending Potomac TRACON
10:12PM 37.3500 -77.2667 38° Northeast 213 245 1,700 60 Climbing Potomac TRACON